Ransomville, New York
Current Conditions -  °F | °C
As of 2:54 PM on Tuesday 21 Oct 2014 (Local Time) from KIAG Reporting Station
Drizzle Drizzle  
Wind Chill: 45°   Ceiling: 500
Heat Index: 49°   Visibility: 4mi
Dew Point: 46°   Wind: 10mph
Humidity: 90%   Direction: 20°NNE
Pressure: 29.9"   Gusts: NA
Location:  43.24°N, 78.91°W
Report Text: KIAG 211854Z 02009KT 4SM -DZ BR BKN005 OVC008 09/08 A2990 RMK AO2 DZB54 P0000 T00940078
Loading
Personal Weather Stations






























Interactive Weather Map
Tropical Storm Tracking
New forecast layout! Learn more

10-Day Weather Forecast

Advertisements
Track Severe Weather on mobile